sensor_id;sensor_type;location;lat;lon;timestamp;pressure;altitude;pressure_sealevel;temperature;humidity
54306;BME280;66145;45.188;5.712;2023-11-21T00:02:25;98968.00;;;18.92;53.27
54306;BME280;66145;45.188;5.712;2023-11-21T00:04:50;98962.72;;;18.96;53.24
54306;BME280;66145;45.188;5.712;2023-11-21T00:07:16;98951.91;;;18.99;52.92
54306;BME280;66145;45.188;5.712;2023-11-21T00:09:42;98944.94;;;19.02;52.94
54306;BME280;66145;45.188;5.712;2023-11-21T00:12:10;98946.75;;;19.07;52.91
54306;BME280;66145;45.188;5.712;2023-11-21T00:14:38;98949.00;;;19.05;52.79
54306;BME280;66145;45.188;5.712;2023-11-21T00:17:04;98943.81;;;19.03;52.98
54306;BME280;66145;45.188;5.712;2023-11-21T00:19:30;98938.19;;;18.99;52.96
54306;BME280;66145;45.188;5.712;2023-11-21T00:21:56;98946.91;;;19.02;52.95
54306;BME280;66145;45.188;5.712;2023-11-21T00:24:23;98947.88;;;18.97;52.87
54306;BME280;66145;45.188;5.712;2023-11-21T00:26:50;98948.03;;;19.00;53.20
54306;BME280;66145;45.188;5.712;2023-11-21T00:29:15;98937.22;;;18.95;53.09
54306;BME280;66145;45.188;5.712;2023-11-21T00:31:43;98928.47;;;18.93;53.28
54306;BME280;66145;45.188;5.712;2023-11-21T00:34:08;98927.69;;;18.93;53.33
54306;BME280;66145;45.188;5.712;2023-11-21T00:36:33;98930.75;;;18.91;53.30
54306;BME280;66145;45.188;5.712;2023-11-21T00:38:59;98918.00;;;18.87;53.36
54306;BME280;66145;45.188;5.712;2023-11-21T00:41:25;98922.84;;;18.90;53.20
54306;BME280;66145;45.188;5.712;2023-11-21T00:43:53;98931.75;;;18.95;53.16
54306;BME280;66145;45.188;5.712;2023-11-21T00:46:18;98914.78;;;18.93;53.16
54306;BME280;66145;45.188;5.712;2023-11-21T00:48:44;98921.25;;;18.97;53.06
54306;BME280;66145;45.188;5.712;2023-11-21T00:51:09;98918.03;;;18.95;53.16
54306;BME280;66145;45.188;5.712;2023-11-21T00:53:34;98920.13;;;18.98;53.12
54306;BME280;66145;45.188;5.712;2023-11-21T00:55:59;98917.09;;;19.00;53.20
54306;BME280;66145;45.188;5.712;2023-11-21T00:58:25;98907.38;;;18.94;53.14
54306;BME280;66145;45.188;5.712;2023-11-21T01:00:50;98914.16;;;18.96;52.92
54306;BME280;66145;45.188;5.712;2023-11-21T01:03:16;98907.03;;;18.87;53.18
54306;BME280;66145;45.188;5.712;2023-11-21T01:05:41;98913.50;;;18.91;53.24
54306;BME280;66145;45.188;5.712;2023-11-21T01:08:07;98911.09;;;18.89;53.07
54306;BME280;66145;45.188;5.712;2023-11-21T01:10:32;98911.09;;;18.89;53.13
54306;BME280;66145;45.188;5.712;2023-11-21T01:12:59;98914.63;;;18.90;53.21
54306;BME280;66145;45.188;5.712;2023-11-21T01:15:24;98915.13;;;18.92;53.07
54306;BME280;66145;45.188;5.712;2023-11-21T01:17:51;98905.47;;;18.94;53.32
54306;BME280;66145;45.188;5.712;2023-11-21T01:20:17;98913.38;;;18.96;53.23
54306;BME280;66145;45.188;5.712;2023-11-21T01:22:43;98916.91;;;18.96;53.03
54306;BME280;66145;45.188;5.712;2023-11-21T01:25:08;98914.66;;;18.98;52.95
54306;BME280;66145;45.188;5.712;2023-11-21T01:27:34;98912.25;;;18.97;53.31
54306;BME280;66145;45.188;5.712;2023-11-21T01:30:01;98918.03;;;18.95;53.46
54306;BME280;66145;45.188;5.712;2023-11-21T01:32:27;98913.38;;;18.96;53.15
54306;BME280;66145;45.188;5.712;2023-11-21T01:34:54;98913.38;;;18.96;53.09
54306;BME280;66145;45.188;5.712;2023-11-21T01:37:20;98898.19;;;18.90;53.35
54306;BME280;66145;45.188;5.712;2023-11-21T01:39:47;98912.84;;;18.94;52.92
54306;BME280;66145;45.188;5.712;2023-11-21T01:42:12;98901.41;;;18.92;52.85
54306;BME280;66145;45.188;5.712;2023-11-21T01:44:39;98902.72;;;18.94;53.04
54306;BME280;66145;45.188;5.712;2023-11-21T01:47:07;98918.38;;;19.03;52.96
54306;BME280;66145;45.188;5.712;2023-11-21T01:49:33;98921.75;;;19.08;52.94
54306;BME280;66145;45.188;5.712;2023-11-21T01:51:59;98909.31;;;19.11;52.85
54306;BME280;66145;45.188;5.712;2023-11-21T01:54:25;98913.19;;;19.10;52.71
54306;BME280;66145;45.188;5.712;2023-11-21T01:56:50;98898.69;;;19.09;52.70
54306;BME280;66145;45.188;5.712;2023-11-21T01:59:20;98903.38;;;19.09;52.85
54306;BME280;66145;45.188;5.712;2023-11-21T02:01:46;98902.88;;;19.07;53.03
54306;BME280;66145;45.188;5.712;2023-11-21T02:04:12;98893.69;;;19.03;52.68
54306;BME280;66145;45.188;5.712;2023-11-21T02:06:38;98880.16;;;18.97;53.03
54306;BME280;66145;45.188;5.712;2023-11-21T02:09:04;98891.59;;;18.99;53.06
54306;BME280;66145;45.188;5.712;2023-11-21T02:11:30;98885.63;;;18.97;52.91
54306;BME280;66145;45.188;5.712;2023-11-21T02:13:55;98882.25;;;19.00;53.07
54306;BME280;66145;45.188;5.712;2023-11-21T02:16:21;98880.00;;;19.03;53.06
54306;BME280;66145;45.188;5.712;2023-11-21T02:18:47;98875.47;;;19.07;53.08
54306;BME280;66145;45.188;5.712;2023-11-21T02:21:14;98854.19;;;19.04;52.69
54306;BME280;66145;45.188;5.712;2023-11-21T02:23:39;98869.00;;;19.11;52.81
54306;BME280;66145;45.188;5.712;2023-11-21T02:26:09;98860.78;;;19.11;52.85
54306;BME280;66145;45.188;5.712;2023-11-21T02:28:35;98867.53;;;19.14;52.76
54306;BME280;66145;45.188;5.712;2023-11-21T02:31:00;98857.56;;;19.09;52.76
54306;BME280;66145;45.188;5.712;2023-11-21T02:33:28;98859.50;;;19.09;52.88
54306;BME280;66145;45.188;5.712;2023-11-21T02:35:53;98853.06;;;19.05;53.01
54306;BME280;66145;45.188;5.712;2023-11-21T02:38:20;98847.59;;;19.05;52.80
54306;BME280;66145;45.188;5.712;2023-11-21T02:40:45;98845.16;;;19.03;53.04
54306;BME280;66145;45.188;5.712;2023-11-21T02:43:11;98838.38;;;18.92;52.97
54306;BME280;66145;45.188;5.712;2023-11-21T02:45:36;98846.47;;;18.97;53.18
54306;BME280;66145;45.188;5.712;2023-11-21T02:48:02;98853.09;;;18.96;53.25
54306;BME280;66145;45.188;5.712;2023-11-21T02:50:27;98841.94;;;18.92;52.97
54306;BME280;66145;45.188;5.712;2023-11-21T02:52:52;98840.50;;;18.95;53.15
54306;BME280;66145;45.188;5.712;2023-11-21T02:55:17;98833.38;;;18.94;53.24
54306;BME280;66145;45.188;5.712;2023-11-21T02:57:43;98840.00;;;19.02;52.82
54306;BME280;66145;45.188;5.712;2023-11-21T03:00:09;98817.44;;;18.96;52.72
54306;BME280;66145;45.188;5.712;2023-11-21T03:02:40;98830.31;;;19.04;52.78
54306;BME280;66145;45.188;5.712;2023-11-21T03:05:06;98835.78;;;19.04;52.93
54306;BME280;66145;45.188;5.712;2023-11-21T03:07:32;98827.59;;;18.95;53.00
54306;BME280;66145;45.188;5.712;2023-11-21T03:09:57;98844.34;;;19.03;53.11
54306;BME280;66145;45.188;5.712;2023-11-21T03:12:22;98842.75;;;19.02;52.95
54306;BME280;66145;45.188;5.712;2023-11-21T03:14:48;98846.47;;;18.97;53.28
54306;BME280;66145;45.188;5.712;2023-11-21T03:17:13;98855.81;;;18.96;53.20
54306;BME280;66145;45.188;5.712;2023-11-21T03:19:41;98841.59;;;18.94;53.03
54306;BME280;66145;45.188;5.712;2023-11-21T03:22:06;98841.13;;;18.92;53.15
54306;BME280;66145;45.188;5.712;2023-11-21T03:24:32;98855.00;;;18.95;53.27
54306;BME280;66145;45.188;5.712;2023-11-21T03:26:57;98841.28;;;18.95;52.89
54306;BME280;66145;45.188;5.712;2023-11-21T03:29:22;98852.09;;;19.00;52.75
54306;BME280;66145;45.188;5.712;2023-11-21T03:31:48;98836.47;;;19.01;52.93
54306;BME280;66145;45.188;5.712;2023-11-21T03:34:25;98833.41;;;19.03;52.56
54306;BME280;66145;45.188;5.712;2023-11-21T03:36:53;98840.31;;;19.09;52.98
54306;BME280;66145;45.188;5.712;2023-11-21T03:39:22;98823.22;;;19.03;52.70
54306;BME280;66145;45.188;5.712;2023-11-21T03:41:47;98832.91;;;19.09;52.73
54306;BME280;66145;45.188;5.712;2023-11-21T03:44:14;98827.09;;;19.02;52.82
54306;BME280;66145;45.188;5.712;2023-11-21T03:46:39;98837.09;;;19.07;52.85
54306;BME280;66145;45.188;5.712;2023-11-21T03:49:05;98829.53;;;19.04;52.73
54306;BME280;66145;45.188;5.712;2023-11-21T03:51:30;98828.56;;;18.99;52.97
54306;BME280;66145;45.188;5.712;2023-11-21T03:53:56;98822.94;;;18.96;53.07
54306;BME280;66145;45.188;5.712;2023-11-21T03:56:21;98823.56;;;19.02;52.99
54306;BME280;66145;45.188;5.712;2023-11-21T03:58:47;98822.91;;;19.05;52.95
54306;BME280;66145;45.188;5.712;2023-11-21T04:01:20;98824.19;;;19.07;52.72
54306;BME280;66145;45.188;5.712;2023-11-21T04:03:47;98828.88;;;19.07;52.81
54306;BME280;66145;45.188;5.712;2023-11-21T04:06:12;98824.34;;;19.11;52.56
54306;BME280;66145;45.188;5.712;2023-11-21T04:08:37;98825.47;;;19.10;52.74
54306;BME280;66145;45.188;5.712;2023-11-21T04:11:02;98830.16;;;19.09;52.90
54306;BME280;66145;45.188;5.712;2023-11-21T04:13:29;98836.59;;;19.13;53.03
54306;BME280;66145;45.188;5.712;2023-11-21T04:15:55;98827.91;;;19.11;52.77
54306;BME280;66145;45.188;5.712;2023-11-21T04:18:21;98830.81;;;19.06;52.87
54306;BME280;66145;45.188;5.712;2023-11-21T04:20:46;98839.03;;;19.06;53.03
54306;BME280;66145;45.188;5.712;2023-11-21T04:23:11;98843.38;;;19.07;52.78
54306;BME280;66145;45.188;5.712;2023-11-21T04:25:38;98844.34;;;19.03;53.04
54306;BME280;66145;45.188;5.712;2023-11-21T04:28:04;98845.16;;;19.03;52.92
54306;BME280;66145;45.188;5.712;2023-11-21T04:30:29;98843.72;;;19.06;52.82
54306;BME280;66145;45.188;5.712;2023-11-21T04:32:54;98845.00;;;19.08;52.93
54306;BME280;66145;45.188;5.712;2023-11-21T04:35:20;98836.47;;;19.01;52.72
54306;BME280;66145;45.188;5.712;2023-11-21T04:37:45;98847.09;;;19.11;52.33
54306;BME280;66145;45.188;5.712;2023-11-21T04:40:11;98854.97;;;19.13;52.69
54306;BME280;66145;45.188;5.712;2023-11-21T04:42:37;98850.81;;;19.07;52.86
54306;BME280;66145;45.188;5.712;2023-11-21T04:45:04;98849.19;;;19.14;52.58
54306;BME280;66145;45.188;5.712;2023-11-21T04:47:33;98855.78;;;19.13;52.47
54306;BME280;66145;45.188;5.712;2023-11-21T04:49:58;98851.44;;;19.12;52.67
54306;BME280;66145;45.188;5.712;2023-11-21T04:52:24;98853.34;;;19.12;52.48
54306;BME280;66145;45.188;5.712;2023-11-21T04:54:49;98845.00;;;19.08;52.85
54306;BME280;66145;45.188;5.712;2023-11-21T04:57:14;98849.97;;;19.06;52.90
54306;BME280;66145;45.188;5.712;2023-11-21T04:59:39;98857.25;;;19.02;52.82
54306;BME280;66145;45.188;5.712;2023-11-21T05:02:05;98863.41;;;18.99;53.01
54306;BME280;66145;45.188;5.712;2023-11-21T05:04:30;98861.31;;;18.96;52.79
54306;BME280;66145;45.188;5.712;2023-11-21T05:06:56;98873.53;;;18.98;52.89
54306;BME280;66145;45.188;5.712;2023-11-21T05:09:21;98861.78;;;18.98;52.87
54306;BME280;66145;45.188;5.712;2023-11-21T05:11:47;98863.41;;;18.99;53.35
54306;BME280;66145;45.188;5.712;2023-11-21T05:14:12;98860.47;;;19.04;52.53
54306;BME280;66145;45.188;5.712;2023-11-21T05:16:39;98858.69;;;19.08;52.75
54306;BME280;66145;45.188;5.712;2023-11-21T05:19:04;98860.78;;;19.11;52.82
54306;BME280;66145;45.188;5.712;2023-11-21T05:21:30;98861.59;;;19.12;52.58
54306;BME280;66145;45.188;5.712;2023-11-21T05:23:58;98862.41;;;19.12;52.52
54306;BME280;66145;45.188;5.712;2023-11-21T05:26:24;98858.84;;;19.12;52.49
54306;BME280;66145;45.188;5.712;2023-11-21T05:28:49;98857.56;;;19.09;52.77
54306;BME280;66145;45.188;5.712;2023-11-21T05:31:15;98856.09;;;19.12;52.35
54306;BME280;66145;45.188;5.712;2023-11-21T05:33:40;98854.03;;;19.09;52.76
54306;BME280;66145;45.188;5.712;2023-11-21T05:36:07;98854.34;;;19.07;52.77
54306;BME280;66145;45.188;5.712;2023-11-21T05:38:33;98856.13;;;19.03;52.62
54306;BME280;66145;45.188;5.712;2023-11-21T05:40:58;98852.44;;;18.99;52.75
54306;BME280;66145;45.188;5.712;2023-11-21T05:43:24;98844.53;;;18.97;52.89
54306;BME280;66145;45.188;5.712;2023-11-21T05:45:49;98848.38;;;18.96;52.94
54306;BME280;66145;45.188;5.712;2023-11-21T05:48:15;98834.84;;;18.91;52.93
54306;BME280;66145;45.188;5.712;2023-11-21T05:50:40;98848.88;;;18.98;53.12
54306;BME280;66145;45.188;5.712;2023-11-21T05:53:06;98846.94;;;18.99;52.97
54306;BME280;66145;45.188;5.712;2023-11-21T05:55:32;98854.97;;;19.04;52.65
54306;BME280;66145;45.188;5.712;2023-11-21T05:57:58;98858.34;;;19.10;52.84
54306;BME280;66145;45.188;5.712;2023-11-21T06:00:23;98853.84;;;19.14;52.67
54306;BME280;66145;45.188;5.712;2023-11-21T06:02:51;98837.25;;;19.02;52.34
54306;BME280;66145;45.188;5.712;2023-11-21T06:05:19;98850.31;;;19.13;52.22
54306;BME280;66145;45.188;5.712;2023-11-21T06:07:45;98837.75;;;19.04;52.43
54306;BME280;66145;45.188;5.712;2023-11-21T06:10:12;98851.09;;;19.14;52.66
54306;BME280;66145;45.188;5.712;2023-11-21T06:12:39;98848.56;;;19.09;52.55
54306;BME280;66145;45.188;5.712;2023-11-21T06:15:06;98849.50;;;19.04;52.69
54306;BME280;66145;45.188;5.712;2023-11-21T06:17:36;98845.63;;;19.05;52.49
54306;BME280;66145;45.188;5.712;2023-11-21T06:20:03;98846.28;;;19.02;52.78
54306;BME280;66145;45.188;5.712;2023-11-21T06:22:37;98843.09;;;19.00;52.93
54306;BME280;66145;45.188;5.712;2023-11-21T06:25:03;98826.44;;;18.88;52.95
54306;BME280;66145;45.188;5.712;2023-11-21T06:27:50;98850.34;;;18.96;53.02
54306;BME280;66145;45.188;5.712;2023-11-21T06:30:17;98853.88;;;18.96;52.94
54306;BME280;66145;45.188;5.712;2023-11-21T06:32:45;98852.75;;;18.97;52.91
54306;BME280;66145;45.188;5.712;2023-11-21T06:35:13;98865.16;;;19.04;52.59
54306;BME280;66145;45.188;5.712;2023-11-21T06:37:40;98853.22;;;18.99;52.72
54306;BME280;66145;45.188;5.712;2023-11-21T06:40:06;98859.84;;;18.98;52.56
54306;BME280;66145;45.188;5.712;2023-11-21T06:42:32;98868.69;;;19.04;52.64
54306;BME280;66145;45.188;5.712;2023-11-21T06:44:58;98863.06;;;19.00;52.66
54306;BME280;66145;45.188;5.712;2023-11-21T06:47:24;98862.72;;;19.02;52.61
54306;BME280;66145;45.188;5.712;2023-11-21T06:49:50;98874.84;;;19.01;52.74
54306;BME280;66145;45.188;5.712;2023-11-21T06:52:16;98872.41;;;18.99;53.06
54306;BME280;66145;45.188;5.712;2023-11-21T06:54:41;98869.19;;;18.97;52.95
54306;BME280;66145;45.188;5.712;2023-11-21T06:57:06;98874.19;;;18.95;52.72
54306;BME280;66145;45.188;5.712;2023-11-21T06:59:32;98868.53;;;18.92;52.89
54306;BME280;66145;45.188;5.712;2023-11-21T07:01:58;98870.78;;;18.90;52.92
54306;BME280;66145;45.188;5.712;2023-11-21T07:04:24;98859.66;;;18.86;52.94
54306;BME280;66145;45.188;5.712;2023-11-21T07:06:51;98867.06;;;18.85;52.94
54306;BME280;66145;45.188;5.712;2023-11-21T07:09:16;98863.06;;;18.83;53.20
54306;BME280;66145;45.188;5.712;2023-11-21T07:11:41;98867.41;;;18.84;52.91
54306;BME280;66145;45.188;5.712;2023-11-21T07:14:07;98864.81;;;18.79;53.24
54306;BME280;66145;45.188;5.712;2023-11-21T07:16:35;98879.66;;;18.87;53.01
54306;BME280;66145;45.188;5.712;2023-11-21T07:19:02;98873.03;;;18.88;52.97
54306;BME280;66145;45.188;5.712;2023-11-21T07:21:31;98874.66;;;18.89;52.95
54306;BME280;66145;45.188;5.712;2023-11-21T07:23:57;98885.59;;;18.89;52.96
54306;BME280;66145;45.188;5.712;2023-11-21T07:26:22;98873.38;;;18.86;53.09
54306;BME280;66145;45.188;5.712;2023-11-21T07:28:48;98865.00;;;18.82;53.10
54306;BME280;66145;45.188;5.712;2023-11-21T07:31:13;98870.78;;;18.81;53.03
54306;BME280;66145;45.188;5.712;2023-11-21T07:33:39;98873.53;;;18.81;53.29
54306;BME280;66145;45.188;5.712;2023-11-21T07:36:04;98870.78;;;18.81;53.04
54306;BME280;66145;45.188;5.712;2023-11-21T07:38:30;98877.72;;;18.78;53.10
54306;BME280;66145;45.188;5.712;2023-11-21T07:40:55;98874.84;;;18.75;53.27
54306;BME280;66145;45.188;5.712;2023-11-21T07:43:20;98876.75;;;18.74;52.88
54306;BME280;66145;45.188;5.712;2023-11-21T07:45:45;98872.75;;;18.72;53.28
54306;BME280;66145;45.188;5.712;2023-11-21T07:48:11;98879.00;;;18.72;53.21
54306;BME280;66145;45.188;5.712;2023-11-21T07:50:36;98875.00;;;18.69;53.39
54306;BME280;66145;45.188;5.712;2023-11-21T07:53:01;98875.16;;;18.64;53.36
54306;BME280;66145;45.188;5.712;2023-11-21T07:55:27;98877.59;;;18.66;53.19
54306;BME280;66145;45.188;5.712;2023-11-21T07:57:52;98868.72;;;18.60;53.20
54306;BME280;66145;45.188;5.712;2023-11-21T08:00:18;98860.03;;;18.49;53.33
54306;BME280;66145;45.188;5.712;2023-11-21T08:02:44;98875.00;;;18.61;53.46
54306;BME280;66145;45.188;5.712;2023-11-21T08:05:12;98874.50;;;18.59;53.46
54306;BME280;66145;45.188;5.712;2023-11-21T08:07:37;98870.63;;;18.51;53.51
54306;BME280;66145;45.188;5.712;2023-11-21T08:10:03;98862.13;;;18.52;53.52
54306;BME280;66145;45.188;5.712;2023-11-21T08:12:30;98859.69;;;18.51;53.51
54306;BME280;66145;45.188;5.712;2023-11-21T08:14:55;98871.13;;;18.53;53.43
54306;BME280;66145;45.188;5.712;2023-11-21T08:17:20;98861.63;;;18.50;53.54
54306;BME280;66145;45.188;5.712;2023-11-21T08:19:46;98852.59;;;18.41;53.58
54306;BME280;66145;45.188;5.712;2023-11-21T08:22:17;98861.00;;;18.45;53.80
54306;BME280;66145;45.188;5.712;2023-11-21T08:24:43;98860.16;;;18.44;53.59
54306;BME280;66145;45.188;5.712;2023-11-21T08:27:09;98852.28;;;18.43;53.45
54306;BME280;66145;45.188;5.712;2023-11-21T08:29:34;98859.84;;;18.46;53.67
54306;BME280;66145;45.188;5.712;2023-11-21T08:32:01;98856.31;;;18.45;53.82
54306;BME280;66145;45.188;5.712;2023-11-21T08:34:27;98856.78;;;18.47;53.44
54306;BME280;66145;45.188;5.712;2023-11-21T08:36:53;98863.41;;;18.46;53.55
54306;BME280;66145;45.188;5.712;2023-11-21T08:39:19;98852.78;;;18.45;53.34
54306;BME280;66145;45.188;5.712;2023-11-21T08:41:44;98853.56;;;18.45;53.76
54306;BME280;66145;45.188;5.712;2023-11-21T08:44:09;98849.56;;;18.43;53.62
54306;BME280;66145;45.188;5.712;2023-11-21T08:46:36;98847.13;;;18.41;53.75
54306;BME280;66145;45.188;5.712;2023-11-21T08:49:02;98859.03;;;18.45;53.57
54306;BME280;66145;45.188;5.712;2023-11-21T08:51:27;98858.56;;;18.43;53.56
54306;BME280;66145;45.188;5.712;2023-11-21T08:53:53;98854.53;;;18.41;53.79
54306;BME280;66145;45.188;5.712;2023-11-21T08:56:18;98847.94;;;18.33;53.50
54306;BME280;66145;45.188;5.712;2023-11-21T08:58:45;98853.06;;;18.34;53.64
54306;BME280;66145;45.188;5.712;2023-11-21T09:01:12;98852.09;;;18.30;53.81
54306;BME280;66145;45.188;5.712;2023-11-21T09:03:37;98856.63;;;18.35;53.76
54306;BME280;66145;45.188;5.712;2023-11-21T09:06:03;98852.28;;;18.34;54.00
54306;BME280;66145;45.188;5.712;2023-11-21T09:08:28;98850.34;;;18.34;53.76
54306;BME280;66145;45.188;5.712;2023-11-21T09:10:54;98851.47;;;18.33;53.64
54306;BME280;66145;45.188;5.712;2023-11-21T09:13:19;98847.13;;;18.41;53.52
54306;BME280;66145;45.188;5.712;2023-11-21T09:15:45;98858.06;;;18.41;53.51
54306;BME280;66145;45.188;5.712;2023-11-21T09:18:13;98859.38;;;18.44;53.65
54306;BME280;66145;45.188;5.712;2023-11-21T09:20:38;98860.81;;;18.41;53.53
54306;BME280;66145;45.188;5.712;2023-11-21T09:23:04;98858.06;;;18.41;53.27
54306;BME280;66145;45.188;5.712;2023-11-21T09:25:29;98862.75;;;18.41;53.87
54306;BME280;66145;45.188;5.712;2023-11-21T09:27:54;98851.31;;;18.38;53.71
54306;BME280;66145;45.188;5.712;2023-11-21T09:30:21;98856.47;;;18.40;53.52
54306;BME280;66145;45.188;5.712;2023-11-21T09:32:46;98857.44;;;18.35;53.88
54306;BME280;66145;45.188;5.712;2023-11-21T09:35:12;98845.97;;;18.33;53.68
54306;BME280;66145;45.188;5.712;2023-11-21T09:37:39;98851.47;;;18.33;53.81
54306;BME280;66145;45.188;5.712;2023-11-21T09:40:05;98855.97;;;18.38;53.56
54306;BME280;66145;45.188;5.712;2023-11-21T09:42:57;98854.53;;;18.41;53.39
54306;BME280;66145;45.188;5.712;2023-11-21T09:45:33;98850.19;;;18.39;53.59
54306;BME280;66145;45.188;5.712;2023-11-21T09:48:00;98838.25;;;18.35;53.61
54306;BME280;66145;45.188;5.712;2023-11-21T09:50:26;98852.28;;;18.43;53.51
54306;BME280;66145;45.188;5.712;2023-11-21T09:55:27;98861.63;;;18.42;53.53
54306;BME280;66145;45.188;5.712;2023-11-21T09:57:56;98856.78;;;18.47;53.63
54306;BME280;66145;45.188;5.712;2023-11-21T10:00:22;98862.91;;;18.44;53.46
54306;BME280;66145;45.188;5.712;2023-11-21T10:02:49;98863.25;;;18.43;53.48
54306;BME280;66145;45.188;5.712;2023-11-21T10:05:15;98861.63;;;18.42;53.35
54306;BME280;66145;45.188;5.712;2023-11-21T10:07:43;98854.84;;;18.39;53.60
54306;BME280;66145;45.188;5.712;2023-11-21T10:10:10;98855.97;;;18.38;53.88
54306;BME280;66145;45.188;5.712;2023-11-21T10:12:35;98852.44;;;18.37;53.64
54306;BME280;66145;45.188;5.712;2023-11-21T10:15:03;98845.69;;;18.35;53.78
54306;BME280;66145;45.188;5.712;2023-11-21T10:17:35;98851.63;;;18.37;53.57
54306;BME280;66145;45.188;5.712;2023-11-21T10:20:08;98844.38;;;18.41;53.60
54306;BME280;66145;45.188;5.712;2023-11-21T10:22:38;98844.06;;;18.43;53.58
54306;BME280;66145;45.188;5.712;2023-11-21T10:25:06;98839.53;;;18.47;53.36
54306;BME280;66145;45.188;5.712;2023-11-21T10:27:36;98843.41;;;18.46;53.72
54306;BME280;66145;45.188;5.712;2023-11-21T10:30:04;98835.19;;;18.46;53.41
54306;BME280;66145;45.188;5.712;2023-11-21T10:32:29;98832.31;;;18.42;53.51
54306;BME280;66145;45.188;5.712;2023-11-21T10:35:00;98835.03;;;18.42;53.67
54306;BME280;66145;45.188;5.712;2023-11-21T10:37:29;98836.34;;;18.45;53.46
54306;BME280;66145;45.188;5.712;2023-11-21T10:39:58;98833.91;;;18.43;53.52
54306;BME280;66145;45.188;5.712;2023-11-21T10:42:24;98828.13;;;18.36;53.48
54306;BME280;66145;45.188;5.712;2023-11-21T10:44:50;98832.16;;;18.38;53.87
54306;BME280;66145;45.188;5.712;2023-11-21T10:47:16;98820.56;;;18.33;53.62
54306;BME280;66145;45.188;5.712;2023-11-21T10:49:44;98824.22;;;18.37;53.70
54306;BME280;66145;45.188;5.712;2023-11-21T10:52:09;98817.19;;;18.36;53.85
54306;BME280;66145;45.188;5.712;2023-11-21T10:54:42;98813.13;;;18.33;53.89
54306;BME280;66145;45.188;5.712;2023-11-21T10:57:07;98800.56;;;18.32;53.77
54306;BME280;66145;45.188;5.712;2023-11-21T10:59:33;98814.09;;;18.37;53.64
54306;BME280;66145;45.188;5.712;2023-11-21T11:02:01;98814.25;;;18.41;53.79
54306;BME280;66145;45.188;5.712;2023-11-21T11:04:28;98797.69;;;18.37;53.42
54306;BME280;66145;45.188;5.712;2023-11-21T11:06:57;98810.38;;;18.51;53.16
54306;BME280;66145;45.188;5.712;2023-11-21T11:09:27;98803.44;;;18.53;53.33
54306;BME280;66145;45.188;5.712;2023-11-21T11:11:52;98819.41;;;18.60;53.15
54306;BME280;66145;45.188;5.712;2023-11-21T11:14:19;98798.16;;;18.57;53.27
54306;BME280;66145;45.188;5.712;2023-11-21T11:16:48;98798.16;;;18.57;53.38
54306;BME280;66145;45.188;5.712;2023-11-21T11:19:14;98797.81;;;18.59;53.14
54306;BME280;66145;45.188;5.712;2023-11-21T11:24:53;98797.31;;;18.57;53.27
54306;BME280;66145;45.188;5.712;2023-11-21T11:30:30;98807.34;;;18.52;53.34
54306;BME280;66145;45.188;5.712;2023-11-21T11:38:21;98800.41;;;18.55;53.08
54306;BME280;66145;45.188;5.712;2023-11-21T11:40:52;98799.09;;;18.61;53.05
54306;BME280;66145;45.188;5.712;2023-11-21T11:43:25;98802.50;;;18.67;53.08
54306;BME280;66145;45.188;5.712;2023-11-21T11:45:53;98809.25;;;18.69;53.02
54306;BME280;66145;45.188;5.712;2023-11-21T11:48:21;98804.91;;;18.68;52.95
54306;BME280;66145;45.188;5.712;2023-11-21T11:53:41;98789.09;;;18.65;53.09
54306;BME280;66145;45.188;5.712;2023-11-21T11:58:49;98787.81;;;18.63;53.33
54306;BME280;66145;45.188;5.712;2023-11-21T12:01:19;98773.81;;;18.55;53.18
54306;BME280;66145;45.188;5.712;2023-11-21T12:06:36;98789.94;;;18.57;53.53
54306;BME280;66145;45.188;5.712;2023-11-21T12:09:02;98770.13;;;18.51;53.16
54306;BME280;66145;45.188;5.712;2023-11-21T12:11:31;98773.16;;;18.59;53.26
54306;BME280;66145;45.188;5.712;2023-11-21T12:13:58;98772.66;;;18.65;53.03
54306;BME280;66145;45.188;5.712;2023-11-21T12:16:25;98774.44;;;18.70;52.80
54306;BME280;66145;45.188;5.712;2023-11-21T12:18:53;98773.63;;;18.69;52.90
54306;BME280;66145;45.188;5.712;2023-11-21T12:21:19;98778.13;;;18.74;53.09
54306;BME280;66145;45.188;5.712;2023-11-21T12:23:45;98771.53;;;18.66;53.07
54306;BME280;66145;45.188;5.712;2023-11-21T12:26:12;98770.09;;;18.69;52.99
54306;BME280;66145;45.188;5.712;2023-11-21T12:28:38;98780.38;;;18.72;52.89
54306;BME280;66145;45.188;5.712;2023-11-21T12:31:03;98771.53;;;18.66;53.05
54306;BME280;66145;45.188;5.712;2023-11-21T12:33:32;98774.13;;;18.63;53.00
54306;BME280;66145;45.188;5.712;2023-11-21T12:35:58;98766.06;;;18.58;53.01
54306;BME280;66145;45.188;5.712;2023-11-21T12:38:23;98782.66;;;18.70;52.81
54306;BME280;66145;45.188;5.712;2023-11-21T12:40:50;98785.88;;;18.72;53.01
54306;BME280;66145;45.188;5.712;2023-11-21T12:43:16;98778.63;;;18.76;52.90
54306;BME280;66145;45.188;5.712;2023-11-21T12:45:43;98782.31;;;18.80;52.93
54306;BME280;66145;45.188;5.712;2023-11-21T12:48:09;98775.22;;;18.79;52.69
54306;BME280;66145;45.188;5.712;2023-11-21T12:50:37;98787.16;;;18.83;52.69
54306;BME280;66145;45.188;5.712;2023-11-21T12:53:05;98792.78;;;18.87;52.57
54306;BME280;66145;45.188;5.712;2023-11-21T12:55:34;98779.72;;;18.84;52.84
54306;BME280;66145;45.188;5.712;2023-11-21T12:58:04;98793.09;;;18.85;52.69
54306;BME280;66145;45.188;5.712;2023-11-21T13:00:44;98794.56;;;18.83;52.63
54306;BME280;66145;45.188;5.712;2023-11-21T13:03:12;98789.25;;;18.78;52.91
54306;BME280;66145;45.188;5.712;2023-11-21T13:05:42;98789.25;;;18.78;53.02
54306;BME280;66145;45.188;5.712;2023-11-21T13:08:11;98786.50;;;18.78;53.06
54306;BME280;66145;45.188;5.712;2023-11-21T13:10:43;98789.25;;;18.78;53.07
54306;BME280;66145;45.188;5.712;2023-11-21T13:13:11;98793.13;;;18.77;52.84
54306;BME280;66145;45.188;5.712;2023-11-21T13:15:49;98790.53;;;18.80;52.90
54306;BME280;66145;45.188;5.712;2023-11-21T13:18:15;98781.00;;;18.78;53.16
54306;BME280;66145;45.188;5.712;2023-11-21T13:20:41;98793.44;;;18.84;52.66